createdAt,value
2019-05-20T00:04:05.897Z,99.90
2019-05-20T00:08:28.364Z,99.90
2019-05-20T00:12:52.723Z,99.90
2019-05-20T00:17:17.218Z,99.90
2019-05-20T00:21:41.558Z,99.90
2019-05-20T00:26:06.960Z,99.90
2019-05-20T00:30:22.327Z,99.90
2019-05-20T00:34:46.714Z,99.90
2019-05-20T00:39:21.649Z,99.90
2019-05-20T00:43:47.079Z,99.90
2019-05-20T00:48:12.193Z,99.90
2019-05-20T00:52:19.379Z,99.90
2019-05-20T00:56:25.871Z,99.90
2019-05-20T01:00:40.650Z,99.90
2019-05-20T01:05:05.595Z,99.90
2019-05-20T01:09:30.484Z,99.90
2019-05-20T01:13:37.134Z,99.90
2019-05-20T01:17:45.899Z,99.90
2019-05-20T01:22:30.239Z,99.90
2019-05-20T01:26:54.859Z,99.90
2019-05-20T01:31:19.754Z,99.90
2019-05-20T01:35:28.043Z,99.90
2019-05-20T01:39:46.598Z,99.90
2019-05-20T01:43:54.243Z,99.90
2019-05-20T01:48:00.506Z,99.90
2019-05-20T01:52:13.633Z,99.90
2019-05-20T01:56:38.163Z,99.90
2019-05-20T02:00:44.442Z,99.90
2019-05-20T02:04:52.271Z,99.90
2019-05-20T02:09:12.938Z,99.90
2019-05-20T02:13:20.244Z,99.90
2019-05-20T02:17:27.522Z,99.90
2019-05-20T02:21:52.520Z,99.90
2019-05-20T02:26:17.774Z,99.90
2019-05-20T02:30:24.140Z,99.90
2019-05-20T02:34:43.403Z,99.90
2019-05-20T02:38:49.857Z,99.90
2019-05-20T02:42:56.375Z,99.90
2019-05-20T02:47:03.873Z,99.90
2019-05-20T02:51:11.462Z,99.90
2019-05-20T02:55:36.208Z,99.90
2019-05-20T02:59:44.175Z,99.90
2019-05-20T03:04:12.076Z,99.90
2019-05-20T03:08:32.756Z,99.90
2019-05-20T03:12:41.182Z,99.90
2019-05-20T03:16:49.426Z,99.90
2019-05-20T03:20:55.695Z,99.90
2019-05-20T03:25:20.032Z,99.90
2019-05-20T03:29:26.629Z,99.90
2019-05-20T03:33:51.179Z,99.90
2019-05-20T03:38:05.535Z,99.90
2019-05-20T03:42:13.890Z,99.90
2019-05-20T03:46:39.196Z,99.90
2019-05-20T03:50:47.933Z,99.90
2019-05-20T03:55:12.998Z,99.90
2019-05-20T03:59:19.302Z,99.90
2019-05-20T04:03:44.603Z,99.90
2019-05-20T04:07:54.631Z,99.90
2019-05-20T04:12:05.352Z,99.90
2019-05-20T04:16:13.564Z,99.90
2019-05-20T04:20:36.495Z,99.90
2019-05-20T04:24:43.317Z,99.90
2019-05-20T04:29:07.351Z,99.90
2019-05-20T04:33:14.417Z,99.90
2019-05-20T04:37:39.621Z,99.90
2019-05-20T04:42:06.740Z,99.90
2019-05-20T04:46:32.725Z,99.90
2019-05-20T04:50:40.659Z,99.90
2019-05-20T04:55:04.341Z,99.90
2019-05-20T04:59:10.876Z,99.90
2019-05-20T05:03:17.532Z,99.90
2019-05-20T05:07:24.030Z,99.90
2019-05-20T05:11:32.270Z,99.90
2019-05-20T05:15:38.782Z,99.90
2019-05-20T05:19:46.333Z,99.90
2019-05-20T05:23:59.083Z,99.90
2019-05-20T05:28:01.233Z,99.90
2019-05-20T05:32:07.775Z,99.90
2019-05-20T05:36:15.528Z,99.90
2019-05-20T05:40:31.149Z,99.90
2019-05-20T05:44:37.411Z,99.90
2019-05-20T05:48:43.927Z,99.90
2019-05-20T05:52:51.914Z,99.90
2019-05-20T05:56:59.923Z,99.90
2019-05-20T06:01:06.811Z,99.90
2019-05-20T06:05:13.298Z,99.90
2019-05-20T06:09:19.853Z,99.90
2019-05-20T06:13:26.244Z,98.70
2019-05-20T06:17:33.326Z,96.90
2019-05-20T06:21:40.174Z,95.40
2019-05-20T06:25:54.147Z,93.30
2019-05-20T06:30:01.873Z,92.20
2019-05-20T06:34:08.902Z,91.00
2019-05-20T06:38:34.656Z,64.80
2019-05-20T06:42:41.375Z,44.30
2019-05-20T06:46:47.806Z,37.80
2019-05-20T06:50:54.642Z,36.10
2019-05-20T06:55:01.015Z,38.30
2019-05-20T06:59:09.381Z,42.30
2019-05-20T07:03:16.462Z,46.00
2019-05-20T07:07:23.259Z,48.10
2019-05-20T07:11:30.414Z,50.00
2019-05-20T07:15:36.857Z,52.70
2019-05-20T07:19:43.358Z,51.50
2019-05-20T07:23:52.374Z,47.80
2019-05-20T07:28:05.130Z,48.00
2019-05-20T07:32:12.242Z,51.40
2019-05-20T07:36:18.879Z,55.80
2019-05-20T07:40:30.535Z,59.30
2019-05-20T07:44:37.155Z,65.10
2019-05-20T07:48:44.016Z,71.60
2019-05-20T07:52:50.731Z,74.70
2019-05-20T07:57:00.435Z,74.90
2019-05-20T08:01:08.511Z,70.50
2019-05-20T08:05:15.433Z,63.60
2019-05-20T08:09:22.839Z,57.40
2019-05-20T08:13:30.035Z,52.80
2019-05-20T08:17:36.914Z,54.70
2019-05-20T08:21:43.358Z,58.90
2019-05-20T08:25:50.359Z,61.20
2019-05-20T08:29:56.795Z,63.10
2019-05-20T08:34:05.230Z,63.40
2019-05-20T08:38:30.803Z,63.50
2019-05-20T08:42:37.129Z,62.10
2019-05-20T08:46:43.559Z,62.80
2019-05-20T08:50:51.099Z,63.20
2019-05-20T08:54:57.418Z,63.00
2019-05-20T08:59:04.989Z,64.20
2019-05-20T09:03:11.339Z,66.00
2019-05-20T09:07:36.316Z,68.70
2019-05-20T09:11:42.855Z,68.80
2019-05-20T09:15:50.303Z,68.90
2019-05-20T09:20:01.158Z,68.60
2019-05-20T09:24:18.655Z,70.90
2019-05-20T09:28:24.699Z,73.20
2019-05-20T09:32:32.814Z,74.90
2019-05-20T09:36:39.578Z,78.30
2019-05-20T09:40:48.317Z,81.00
2019-05-20T09:44:55.901Z,83.90
2019-05-20T09:49:02.257Z,84.30
2019-05-20T09:53:09.821Z,86.40
2019-05-20T09:57:16.367Z,87.70
2019-05-20T10:01:24.401Z,90.20
2019-05-20T10:05:41.411Z,90.40
2019-05-20T10:09:49.345Z,90.00
2019-05-20T10:13:55.706Z,89.10
2019-05-20T10:18:05.033Z,86.00
2019-05-20T10:22:11.491Z,86.70
2019-05-20T10:26:17.858Z,85.70
2019-05-20T10:30:25.970Z,86.20
2019-05-20T10:34:32.375Z,87.80
2019-05-20T10:38:56.858Z,89.70
2019-05-20T10:42:48.629Z,90.60
2019-05-20T10:46:56.565Z,91.90
2019-05-20T10:51:05.251Z,92.50
2019-05-20T10:55:12.183Z,93.10
2019-05-20T10:59:19.183Z,91.70
2019-05-20T11:03:25.517Z,91.30
2019-05-20T11:07:34.862Z,90.80
2019-05-20T11:11:41.578Z,88.70
2019-05-20T11:15:50.935Z,88.10
2019-05-20T11:19:57.195Z,89.30
2019-05-20T11:24:03.843Z,90.60
2019-05-20T11:28:11.975Z,91.70
2019-05-20T11:32:19.453Z,93.00
2019-05-20T11:36:26.375Z,94.70
2019-05-20T11:40:34.531Z,96.80
2019-05-20T11:44:52.158Z,98.30
2019-05-20T11:49:05.505Z,99.90
2019-05-20T11:53:12.247Z,99.90
2019-05-20T11:57:19.622Z,99.90
2019-05-20T12:01:26.058Z,99.90
2019-05-20T12:05:32.854Z,99.90
2019-05-20T12:09:49.024Z,99.90
2019-05-20T12:13:49.744Z,99.90
2019-05-20T12:17:57.749Z,99.90
2019-05-20T12:22:04.519Z,99.90
2019-05-20T12:26:11.676Z,99.90
2019-05-20T12:30:25.092Z,99.90
2019-05-20T12:34:34.622Z,99.90
2019-05-20T12:38:41.975Z,99.90
2019-05-20T12:42:48.449Z,99.90
2019-05-20T12:47:03.712Z,99.90
2019-05-20T12:51:10.310Z,99.90
2019-05-20T12:55:34.674Z,99.90
2019-05-20T12:59:41.220Z,99.90
2019-05-20T13:04:06.226Z,99.90
2019-05-20T13:08:15.642Z,99.90
2019-05-20T13:12:22.672Z,99.90
2019-05-20T13:16:30.668Z,99.90
2019-05-20T13:20:37.142Z,99.90
2019-05-20T13:24:43.452Z,99.90
2019-05-20T13:28:54.073Z,99.90
2019-05-20T13:33:00.914Z,99.90
2019-05-20T13:37:10.316Z,99.90
2019-05-20T13:41:20.700Z,99.70
2019-05-20T13:45:29.369Z,99.90
2019-05-20T13:49:35.815Z,99.90
2019-05-20T13:53:43.751Z,99.90
2019-05-20T13:57:52.557Z,99.90
2019-05-20T14:02:06.942Z,99.90
2019-05-20T14:06:15.973Z,99.90
2019-05-20T14:10:41.614Z,99.90
2019-05-20T14:14:48.320Z,99.90
2019-05-20T14:18:54.569Z,99.90
2019-05-20T14:23:02.985Z,99.90
2019-05-20T14:27:09.226Z,99.90
2019-05-20T14:31:17.642Z,99.90
2019-05-20T14:35:27.107Z,99.90
2019-05-20T14:39:33.793Z,99.90
2019-05-20T14:43:43.053Z,99.90
2019-05-20T14:48:05.375Z,99.90
2019-05-20T14:52:12.109Z,99.90
2019-05-20T14:56:18.547Z,99.90
2019-05-20T15:00:25.666Z,99.90
2019-05-20T15:04:31.903Z,99.90
2019-05-20T15:08:38.787Z,99.90
2019-05-20T15:12:45.143Z,99.90
2019-05-20T15:16:51.415Z,99.90
2019-05-20T15:20:59.434Z,99.90
2019-05-20T15:25:05.825Z,99.90
2019-05-20T15:29:26.989Z,99.90
2019-05-20T15:33:20.966Z,99.90
2019-05-20T15:37:27.206Z,99.90
2019-05-20T15:41:33.468Z,99.90
2019-05-20T15:45:39.706Z,99.90
2019-05-20T15:49:46.004Z,99.90
2019-05-20T15:53:52.250Z,99.90
2019-05-20T15:57:58.514Z,99.90
2019-05-20T16:02:05.422Z,99.90
2019-05-20T16:06:11.883Z,99.90
2019-05-20T16:10:18.403Z,99.90
2019-05-20T16:14:24.728Z,99.90
2019-05-20T16:18:31.000Z,99.90
2019-05-20T16:22:37.268Z,99.90
2019-05-20T16:26:43.680Z,99.90
2019-05-20T16:30:49.882Z,99.90
2019-05-20T16:34:56.162Z,99.90
2019-05-20T16:39:02.495Z,99.90
2019-05-20T16:43:09.744Z,99.90
2019-05-20T16:47:16.336Z,99.90
2019-05-20T16:51:23.051Z,99.90
2019-05-20T16:55:29.414Z,99.90
2019-05-20T16:59:35.771Z,99.90
2019-05-20T17:03:42.106Z,99.90
2019-05-20T17:07:48.429Z,99.90
2019-05-20T17:11:54.668Z,99.90
2019-05-20T17:16:00.933Z,99.90
2019-05-20T17:20:07.822Z,99.90
2019-05-20T17:24:15.325Z,99.90
2019-05-20T17:28:21.589Z,99.90
2019-05-20T17:32:27.817Z,99.90
2019-05-20T17:36:34.085Z,99.90
2019-05-20T17:40:40.511Z,99.90
2019-05-20T17:44:47.020Z,99.90
2019-05-20T17:48:53.446Z,99.90
2019-05-20T17:53:00.152Z,99.90
2019-05-20T17:57:10.354Z,99.90
2019-05-20T18:01:19.873Z,99.90
2019-05-20T18:05:27.231Z,99.90
2019-05-20T18:09:35.327Z,99.90
2019-05-20T18:13:41.622Z,99.90
2019-05-20T18:17:47.942Z,99.90
2019-05-20T18:21:54.413Z,99.90
2019-05-20T18:26:03.489Z,99.90
2019-05-20T18:30:11.746Z,99.90
2019-05-20T18:34:18.248Z,99.90
2019-05-20T18:38:25.120Z,99.90
2019-05-20T18:42:32.506Z,99.90
2019-05-20T18:46:39.013Z,99.90
2019-05-20T18:50:46.234Z,99.90
2019-05-20T18:54:53.567Z,99.90
2019-05-20T18:59:00.090Z,99.90
2019-05-20T19:03:07.213Z,99.90
2019-05-20T19:07:15.664Z,99.90
2019-05-20T19:11:24.984Z,99.90
2019-05-20T19:15:32.385Z,99.90
2019-05-20T19:19:38.788Z,99.90
2019-05-20T19:23:45.024Z,99.90
2019-05-20T19:27:51.323Z,99.90
2019-05-20T19:32:16.984Z,99.90
2019-05-20T19:36:23.250Z,99.90
2019-05-20T19:40:29.832Z,99.90
2019-05-20T19:44:36.147Z,99.90
2019-05-20T19:48:42.770Z,99.90
2019-05-20T19:53:07.238Z,99.90
2019-05-20T19:57:31.749Z,99.90
2019-05-20T20:01:55.966Z,99.90
2019-05-20T20:06:05.137Z,99.90
2019-05-20T20:10:12.573Z,99.90
2019-05-20T20:14:21.070Z,99.90
2019-05-20T20:18:33.339Z,99.90
2019-05-20T20:22:57.890Z,99.90
2019-05-20T20:27:05.939Z,99.90
2019-05-20T20:31:31.008Z,99.90
2019-05-20T20:35:55.730Z,99.90
2019-05-20T20:40:03.067Z,99.90
2019-05-20T20:44:13.792Z,99.90
2019-05-20T20:48:38.781Z,99.90
2019-05-20T20:53:04.186Z,99.90
2019-05-20T20:57:11.622Z,99.90
2019-05-20T21:01:22.127Z,99.90
2019-05-20T21:05:29.902Z,99.90
2019-05-20T21:09:39.659Z,99.90
2019-05-20T21:14:04.525Z,99.90
2019-05-20T21:18:11.594Z,99.90
2019-05-20T21:22:19.557Z,99.90
2019-05-20T21:26:26.423Z,99.90
2019-05-20T21:30:51.576Z,99.90
2019-05-20T21:34:59.301Z,99.90
2019-05-20T21:39:07.323Z,99.90
2019-05-20T21:43:16.953Z,99.90
2019-05-20T21:47:25.313Z,99.90
2019-05-20T21:51:33.684Z,99.90
2019-05-20T21:55:40.035Z,99.90
2019-05-20T21:59:54.577Z,99.90
2019-05-20T22:04:18.715Z,99.90
2019-05-20T22:08:25.425Z,99.90
2019-05-20T22:12:50.369Z,99.90
2019-05-20T22:17:15.610Z,99.90
2019-05-20T22:21:40.728Z,99.90
2019-05-20T22:25:56.171Z,99.90
2019-05-20T22:30:20.376Z,99.90
2019-05-20T22:34:53.069Z,99.90
2019-05-20T22:39:11.619Z,99.90
2019-05-20T22:43:25.398Z,99.90
2019-05-20T22:47:49.566Z,99.90
2019-05-20T22:51:58.568Z,99.90
2019-05-20T22:56:23.588Z,99.90
2019-05-20T23:00:48.714Z,99.90
2019-05-20T23:05:13.310Z,99.90
2019-05-20T23:09:38.454Z,99.90
2019-05-20T23:13:47.395Z,99.90
2019-05-20T23:18:12.306Z,99.90
2019-05-20T23:22:37.285Z,99.90
2019-05-20T23:27:02.198Z,99.90
2019-05-20T23:31:26.683Z,99.90
2019-05-20T23:35:52.216Z,99.90
2019-05-20T23:40:17.291Z,99.90
2019-05-20T23:44:42.641Z,99.90
2019-05-20T23:49:07.867Z,99.90
2019-05-20T23:53:32.146Z,99.90
2019-05-20T23:57:57.836Z,99.90
